createdAt,value
2024-01-24T00:02:19.138Z,24.20
2024-01-24T00:04:46.175Z,24.20
2024-01-24T00:07:13.225Z,24.20
2024-01-24T00:09:40.284Z,24.20
2024-01-24T00:12:07.639Z,24.20
2024-01-24T00:14:34.577Z,24.20
2024-01-24T00:17:01.659Z,24.20
2024-01-24T00:19:28.869Z,24.20
2024-01-24T00:21:55.951Z,24.20
2024-01-24T00:24:23.032Z,24.20
2024-01-24T00:26:50.081Z,24.20
2024-01-24T00:29:17.181Z,24.20
2024-01-24T00:31:44.501Z,24.20
2024-01-24T00:34:11.555Z,24.20
2024-01-24T00:36:38.625Z,24.20
2024-01-24T00:39:05.602Z,24.20
2024-01-24T00:41:32.596Z,24.20
2024-01-24T00:43:59.546Z,24.20
2024-01-24T00:46:26.476Z,24.20
2024-01-24T00:48:53.557Z,24.20
2024-01-24T00:51:20.595Z,24.20
2024-01-24T00:53:53.836Z,24.20
2024-01-24T00:56:21.447Z,24.20
2024-01-24T00:58:48.400Z,24.20
2024-01-24T01:01:15.408Z,24.20
2024-01-24T01:03:42.571Z,24.20
2024-01-24T01:06:09.529Z,24.20
2024-01-24T01:08:36.763Z,24.20
2024-01-24T01:11:06.320Z,24.20
2024-01-24T01:13:36.413Z,24.20
2024-01-24T01:16:03.438Z,24.10
2024-01-24T01:18:30.552Z,24.20
2024-01-24T01:20:57.681Z,24.10
2024-01-24T01:23:25.292Z,24.20
2024-01-24T01:25:52.311Z,24.10
2024-01-24T01:28:19.268Z,24.20
2024-01-24T01:30:46.275Z,24.10
2024-01-24T01:33:13.377Z,24.10
2024-01-24T01:35:40.412Z,24.20
2024-01-24T01:38:07.458Z,24.20
2024-01-24T01:40:34.441Z,24.20
2024-01-24T01:43:01.410Z,24.20
2024-01-24T01:45:28.469Z,24.10
2024-01-24T01:47:55.512Z,24.10
2024-01-24T01:50:22.833Z,24.10
2024-01-24T01:52:49.887Z,24.10
2024-01-24T01:55:16.856Z,24.10
2024-01-24T01:57:44.552Z,24.10
2024-01-24T02:00:12.672Z,24.10
2024-01-24T02:02:39.726Z,24.10
2024-01-24T02:05:06.908Z,24.10
2024-01-24T02:07:34.120Z,24.10
2024-01-24T02:10:01.241Z,24.10
2024-01-24T02:12:28.332Z,24.20
2024-01-24T02:14:55.471Z,24.10
2024-01-24T02:17:22.447Z,24.10
2024-01-24T02:19:49.462Z,24.20
2024-01-24T02:22:16.529Z,24.10
2024-01-24T02:24:43.546Z,24.10
2024-01-24T02:27:10.834Z,24.10
2024-01-24T02:29:37.852Z,24.10
2024-01-24T02:32:05.066Z,24.10
2024-01-24T02:34:32.204Z,24.10
2024-01-24T02:36:59.318Z,24.10
2024-01-24T02:39:26.392Z,24.10
2024-01-24T02:41:54.424Z,24.10
2024-01-24T02:44:21.454Z,24.20
2024-01-24T02:46:48.474Z,24.20
2024-01-24T02:49:15.463Z,24.10
2024-01-24T02:51:42.547Z,24.20
2024-01-24T02:54:09.583Z,24.10
2024-01-24T02:56:38.740Z,24.10
2024-01-24T02:59:06.503Z,24.10
2024-01-24T03:01:33.777Z,24.10
2024-01-24T03:04:00.932Z,24.10
2024-01-24T03:06:28.229Z,24.10
2024-01-24T03:08:59.559Z,24.10
2024-01-24T03:11:26.772Z,24.20
2024-01-24T03:13:53.980Z,24.20
2024-01-24T03:16:21.219Z,24.10
2024-01-24T03:18:49.484Z,24.20
2024-01-24T03:21:17.689Z,24.20
2024-01-24T03:23:45.633Z,24.10
2024-01-24T03:26:14.522Z,24.10
2024-01-24T03:28:41.758Z,24.10
2024-01-24T03:31:08.907Z,24.10
2024-01-24T03:33:37.934Z,24.20
2024-01-24T03:36:05.327Z,24.20
2024-01-24T03:38:32.604Z,24.10
2024-01-24T03:40:59.824Z,24.10
2024-01-24T03:43:26.981Z,24.10
2024-01-24T03:45:54.205Z,24.10
2024-01-24T03:48:21.555Z,24.10
2024-01-24T03:50:49.031Z,24.10
2024-01-24T03:53:16.237Z,24.10
2024-01-24T03:55:43.491Z,24.10
2024-01-24T03:58:10.654Z,24.10
2024-01-24T04:00:37.911Z,24.10
2024-01-24T04:03:05.407Z,24.10
2024-01-24T04:05:32.981Z,24.10
2024-01-24T04:08:00.146Z,24.10
2024-01-24T04:10:27.305Z,24.10
2024-01-24T04:12:54.511Z,24.20
2024-01-24T04:15:21.792Z,24.10
2024-01-24T04:17:48.932Z,24.10
2024-01-24T04:20:16.015Z,24.10
2024-01-24T04:22:43.260Z,24.10
2024-01-24T04:25:10.410Z,24.10
2024-01-24T04:27:37.758Z,24.20
2024-01-24T04:30:06.262Z,24.20
2024-01-24T04:32:33.553Z,24.10
2024-01-24T04:35:01.075Z,24.10
2024-01-24T04:37:28.371Z,24.10
2024-01-24T04:39:55.527Z,24.10
2024-01-24T04:42:22.741Z,24.10
2024-01-24T04:44:50.962Z,24.10
2024-01-24T04:47:18.495Z,24.10
2024-01-24T04:49:46.457Z,24.10
2024-01-24T04:52:15.717Z,24.10
2024-01-24T04:54:43.175Z,24.10
2024-01-24T04:57:10.652Z,24.10
2024-01-24T04:59:45.996Z,24.10
2024-01-24T05:02:21.419Z,24.10
2024-01-24T05:04:49.377Z,24.10
2024-01-24T05:07:17.121Z,24.10
2024-01-24T05:09:44.824Z,24.10
2024-01-24T05:12:12.375Z,24.10
2024-01-24T05:14:39.463Z,24.10
2024-01-24T05:17:06.686Z,24.10
2024-01-24T05:19:34.441Z,24.10
2024-01-24T05:22:01.871Z,24.10
2024-01-24T05:24:29.041Z,24.10
2024-01-24T05:26:56.209Z,24.10
2024-01-24T05:29:23.300Z,24.20
2024-01-24T05:31:50.421Z,24.20
2024-01-24T05:34:17.687Z,24.20
2024-01-24T05:36:44.877Z,24.20
2024-01-24T05:39:12.032Z,24.30
2024-01-24T05:41:39.209Z,24.30
2024-01-24T05:44:06.381Z,24.30
2024-01-24T05:46:33.572Z,24.30
2024-01-24T05:49:02.702Z,24.40
2024-01-24T05:51:30.241Z,24.40
2024-01-24T05:53:57.445Z,24.40
2024-01-24T05:56:24.597Z,24.50
2024-01-24T05:58:51.697Z,24.40
2024-01-24T06:01:19.127Z,24.50
2024-01-24T06:03:46.757Z,24.50
2024-01-24T06:06:14.592Z,24.50
2024-01-24T06:08:41.883Z,24.60
2024-01-24T06:11:11.180Z,24.60
2024-01-24T06:13:38.601Z,24.60
2024-01-24T06:16:05.775Z,24.60
2024-01-24T06:18:33.051Z,24.60
2024-01-24T06:21:00.366Z,24.70
2024-01-24T06:23:27.648Z,24.70
2024-01-24T06:25:55.124Z,24.70
2024-01-24T06:28:22.214Z,24.70
2024-01-24T06:30:49.578Z,24.70
2024-01-24T06:33:16.799Z,24.70
2024-01-24T06:35:44.147Z,24.70
2024-01-24T06:38:11.320Z,24.80
2024-01-24T06:40:38.621Z,24.80
2024-01-24T06:43:05.946Z,24.80
2024-01-24T06:45:33.155Z,24.80
2024-01-24T06:48:00.573Z,24.80
2024-01-24T06:50:28.407Z,24.80
2024-01-24T06:52:56.742Z,24.80
2024-01-24T06:55:24.046Z,24.80
2024-01-24T06:57:51.324Z,24.80
2024-01-24T07:00:21.908Z,24.80
2024-01-24T07:02:50.403Z,24.90
2024-01-24T07:05:18.628Z,24.90
2024-01-24T07:07:46.087Z,24.90
2024-01-24T07:10:13.524Z,24.90
2024-01-24T07:12:47.361Z,24.90
2024-01-24T07:15:18.763Z,25.00
2024-01-24T07:17:46.674Z,25.00
2024-01-24T07:20:14.813Z,25.00
2024-01-24T07:22:42.092Z,25.10
2024-01-24T07:25:09.884Z,25.10
2024-01-24T07:27:37.181Z,25.10
2024-01-24T07:30:07.504Z,25.20
2024-01-24T07:32:35.548Z,25.20
2024-01-24T07:35:03.063Z,25.30
2024-01-24T07:37:30.559Z,25.30
2024-01-24T07:39:57.895Z,25.30
2024-01-24T07:42:25.214Z,25.30
2024-01-24T07:44:52.467Z,25.30
2024-01-24T07:47:23.021Z,25.30
2024-01-24T07:49:50.439Z,25.30
2024-01-24T07:52:28.579Z,25.30
2024-01-24T07:55:04.721Z,25.30
2024-01-24T07:57:32.100Z,25.30
2024-01-24T07:59:59.951Z,25.40
2024-01-24T08:02:27.503Z,25.40
2024-01-24T08:04:54.891Z,25.40
2024-01-24T08:07:22.222Z,25.40
2024-01-24T08:09:49.750Z,25.40
2024-01-24T08:12:17.493Z,25.40
2024-01-24T08:14:44.778Z,25.40
2024-01-24T08:17:12.551Z,25.40
2024-01-24T08:19:40.159Z,25.50
2024-01-24T08:22:07.597Z,25.40
2024-01-24T08:24:34.806Z,25.50
2024-01-24T08:27:02.262Z,25.50
2024-01-24T08:29:36.756Z,25.50
2024-01-24T08:32:06.594Z,25.40
2024-01-24T08:34:36.821Z,25.40
2024-01-24T08:37:05.439Z,25.40
2024-01-24T08:39:34.440Z,25.30
2024-01-24T08:42:02.213Z,25.30
2024-01-24T08:44:29.596Z,25.30
2024-01-24T08:46:57.208Z,25.30
2024-01-24T08:49:24.613Z,25.40
2024-01-24T08:51:52.017Z,25.40
2024-01-24T08:54:19.407Z,25.50
2024-01-24T08:56:47.017Z,25.50
2024-01-24T08:59:17.097Z,25.50
2024-01-24T09:01:44.606Z,25.50
2024-01-24T09:04:12.507Z,25.50
2024-01-24T09:06:39.902Z,25.50
2024-01-24T09:09:08.128Z,25.60
2024-01-24T09:11:41.994Z,25.50
2024-01-24T09:14:16.635Z,25.60
2024-01-24T09:16:44.358Z,25.60
2024-01-24T09:19:13.652Z,25.60
2024-01-24T09:21:41.032Z,25.60
2024-01-24T09:24:08.525Z,25.60
2024-01-24T09:26:37.426Z,25.60
2024-01-24T09:29:04.701Z,25.60
2024-01-24T09:31:32.619Z,25.60
2024-01-24T09:34:00.142Z,25.60
2024-01-24T09:36:29.310Z,25.60
2024-01-24T09:38:56.626Z,25.60
2024-01-24T09:41:24.303Z,25.70
2024-01-24T09:43:51.406Z,25.70
2024-01-24T09:46:18.758Z,25.70
2024-01-24T09:48:46.935Z,25.70
2024-01-24T09:51:17.313Z,25.70
2024-01-24T09:53:46.900Z,25.70
2024-01-24T09:56:15.095Z,25.80
2024-01-24T09:58:42.298Z,25.80
2024-01-24T10:01:12.568Z,25.80
2024-01-24T10:03:40.524Z,25.80
2024-01-24T10:06:10.133Z,25.80
2024-01-24T10:08:37.397Z,25.80
2024-01-24T10:11:04.859Z,25.90
2024-01-24T10:13:32.797Z,25.80
2024-01-24T10:16:01.384Z,25.90
2024-01-24T10:18:28.964Z,25.90
2024-01-24T10:20:56.709Z,25.90
2024-01-24T10:23:23.923Z,25.90
2024-01-24T10:25:51.695Z,25.90
2024-01-24T10:28:19.092Z,25.90
2024-01-24T10:30:49.252Z,25.90
2024-01-24T10:33:19.354Z,25.90
2024-01-24T10:35:47.346Z,25.90
2024-01-24T10:38:16.899Z,25.90
2024-01-24T10:40:44.148Z,26.00
2024-01-24T10:43:14.538Z,26.00
2024-01-24T10:45:45.726Z,26.00
2024-01-24T10:48:13.450Z,26.00
2024-01-24T10:50:41.122Z,26.00
2024-01-24T10:53:09.967Z,26.00
2024-01-24T10:55:38.259Z,26.00
2024-01-24T10:58:09.540Z,26.00
2024-01-24T11:00:37.146Z,26.00
2024-01-24T11:03:04.681Z,26.00
2024-01-24T11:05:47.880Z,26.00
2024-01-24T11:08:51.461Z,26.00
2024-01-24T11:11:22.808Z,26.00
2024-01-24T11:13:52.348Z,26.10
2024-01-24T11:16:41.195Z,26.00
2024-01-24T11:19:22.058Z,26.10
2024-01-24T11:21:49.959Z,26.10
2024-01-24T11:24:42.138Z,26.10
2024-01-24T11:27:39.632Z,26.10
2024-01-24T11:30:08.344Z,26.10
2024-01-24T11:32:56.564Z,26.00
2024-01-24T11:35:42.677Z,26.10
2024-01-24T11:38:26.093Z,26.10
2024-01-24T11:40:59.291Z,26.10
2024-01-24T11:43:27.713Z,26.10
2024-01-24T11:46:00.439Z,26.20
2024-01-24T11:48:31.386Z,26.30
2024-01-24T11:50:59.527Z,26.30
2024-01-24T11:53:28.285Z,26.40
2024-01-24T11:56:06.595Z,26.50
2024-01-24T11:58:34.399Z,26.60
2024-01-24T12:01:17.797Z,26.50
2024-01-24T12:03:49.382Z,26.60
2024-01-24T12:06:18.255Z,26.60
2024-01-24T12:08:50.406Z,26.60
2024-01-24T12:11:19.274Z,26.70
2024-01-24T12:13:46.670Z,26.70
2024-01-24T12:16:13.886Z,26.90
2024-01-24T12:18:41.448Z,26.90
2024-01-24T12:21:10.612Z,26.90
2024-01-24T12:23:37.954Z,26.90
2024-01-24T12:26:05.551Z,26.90
2024-01-24T12:28:32.873Z,26.80
2024-01-24T12:31:00.644Z,26.80
2024-01-24T12:33:32.920Z,26.80
2024-01-24T12:36:06.386Z,26.80
2024-01-24T12:38:37.691Z,26.80
2024-01-24T12:41:05.525Z,26.70
2024-01-24T12:43:33.039Z,26.80
2024-01-24T12:46:06.618Z,26.80
2024-01-24T12:48:34.809Z,26.70
2024-01-24T12:51:02.490Z,26.70
2024-01-24T12:53:29.903Z,26.70
2024-01-24T12:55:57.031Z,26.70
2024-01-24T12:58:24.303Z,26.70
2024-01-24T13:00:51.773Z,26.60
2024-01-24T13:03:21.318Z,26.60
2024-01-24T13:05:51.549Z,26.60
2024-01-24T13:08:19.519Z,26.60
2024-01-24T13:10:47.778Z,26.60
2024-01-24T13:13:15.686Z,26.50
2024-01-24T13:15:43.941Z,26.50
2024-01-24T13:18:11.722Z,26.40
2024-01-24T13:20:39.114Z,26.40
2024-01-24T13:23:06.696Z,26.40
2024-01-24T13:25:33.822Z,26.40
2024-01-24T13:28:01.180Z,26.40
2024-01-24T13:30:29.116Z,26.30
2024-01-24T13:32:56.886Z,26.30
2024-01-24T13:35:24.255Z,26.30
2024-01-24T13:37:54.767Z,26.40
2024-01-24T13:40:22.299Z,26.40
2024-01-24T13:42:49.635Z,26.40
2024-01-24T13:45:17.014Z,26.40
2024-01-24T13:47:44.091Z,26.40
2024-01-24T13:50:13.138Z,26.40
2024-01-24T13:52:41.063Z,26.40
2024-01-24T13:55:09.786Z,26.40
2024-01-24T13:57:39.734Z,26.40
2024-01-24T14:00:13.077Z,26.30
2024-01-24T14:02:40.703Z,26.40
2024-01-24T14:05:10.151Z,26.30
2024-01-24T14:07:40.374Z,26.40
2024-01-24T14:10:08.604Z,26.40
2024-01-24T14:12:36.052Z,26.40
2024-01-24T14:15:14.840Z,26.40
2024-01-24T14:17:48.064Z,26.40
2024-01-24T14:20:16.419Z,26.40
2024-01-24T14:22:43.688Z,26.40
2024-01-24T14:25:13.710Z,26.40
2024-01-24T14:27:42.117Z,26.40
2024-01-24T14:30:09.437Z,26.30
2024-01-24T14:32:39.823Z,26.30
2024-01-24T14:35:08.264Z,26.30
2024-01-24T14:37:36.334Z,26.30
2024-01-24T14:40:04.231Z,26.30
2024-01-24T14:42:32.423Z,26.20
2024-01-24T14:45:00.529Z,26.20
2024-01-24T14:47:28.122Z,26.20
2024-01-24T14:49:55.513Z,26.10
2024-01-24T14:52:22.762Z,26.20
2024-01-24T14:54:49.957Z,26.10
2024-01-24T14:57:17.617Z,26.10
2024-01-24T14:59:44.777Z,26.10
2024-01-24T15:02:11.914Z,26.10
2024-01-24T15:04:39.161Z,26.10
2024-01-24T15:07:06.382Z,26.10
2024-01-24T15:09:34.941Z,26.00
2024-01-24T15:12:03.519Z,26.00
2024-01-24T15:14:30.843Z,26.00
2024-01-24T15:16:58.494Z,26.00
2024-01-24T15:19:26.187Z,25.90
2024-01-24T15:21:54.217Z,25.90
2024-01-24T15:24:22.865Z,25.90
2024-01-24T15:26:50.168Z,25.90
2024-01-24T15:29:17.691Z,25.90
2024-01-24T15:31:44.928Z,25.90
2024-01-24T15:34:14.784Z,25.90
2024-01-24T15:36:43.276Z,25.90
2024-01-24T15:39:13.489Z,25.80
2024-01-24T15:41:42.511Z,25.80
2024-01-24T15:44:09.883Z,25.70
2024-01-24T15:46:37.219Z,25.80
2024-01-24T15:49:04.616Z,25.80
2024-01-24T15:51:32.213Z,25.70
2024-01-24T15:53:59.413Z,25.70
2024-01-24T15:56:26.601Z,25.70
2024-01-24T15:58:53.835Z,25.70
2024-01-24T16:01:22.788Z,25.70
2024-01-24T16:03:50.562Z,25.60
2024-01-24T16:06:23.414Z,25.60
2024-01-24T16:08:50.941Z,25.60
2024-01-24T16:11:19.148Z,25.60
2024-01-24T16:13:46.309Z,25.60
2024-01-24T16:16:13.955Z,25.50
2024-01-24T16:18:41.295Z,25.50
2024-01-24T16:21:08.504Z,25.50
2024-01-24T16:23:35.549Z,25.50
2024-01-24T16:26:02.910Z,25.50
2024-01-24T16:28:30.087Z,25.50
2024-01-24T16:30:57.822Z,25.40
2024-01-24T16:33:25.170Z,25.40
2024-01-24T16:35:52.448Z,25.40
2024-01-24T16:38:19.606Z,25.40
2024-01-24T16:40:46.750Z,25.40
2024-01-24T16:43:14.325Z,25.40
2024-01-24T16:45:41.681Z,25.40
2024-01-24T16:48:09.119Z,25.40
2024-01-24T16:50:36.541Z,25.40
2024-01-24T16:53:03.802Z,25.30
2024-01-24T16:55:31.863Z,25.30
2024-01-24T16:57:59.140Z,25.30
2024-01-24T17:00:26.352Z,25.30
2024-01-24T17:02:58.323Z,25.30
2024-01-24T17:05:26.309Z,25.30
2024-01-24T17:07:53.426Z,25.30
2024-01-24T17:10:20.528Z,25.30
2024-01-24T17:12:48.264Z,25.20
2024-01-24T17:15:15.450Z,25.20
2024-01-24T17:17:44.519Z,25.20
2024-01-24T17:20:11.853Z,25.20
2024-01-24T17:22:38.937Z,25.20
2024-01-24T17:25:08.892Z,25.20
2024-01-24T17:27:36.579Z,25.20
2024-01-24T17:30:04.303Z,25.20
2024-01-24T17:32:31.431Z,25.20
2024-01-24T17:34:58.784Z,25.20
2024-01-24T17:37:26.002Z,25.20
2024-01-24T17:39:55.133Z,25.20
2024-01-24T17:42:22.478Z,25.20
2024-01-24T17:44:49.755Z,25.20
2024-01-24T17:47:16.935Z,25.20
2024-01-24T17:49:44.687Z,25.20
2024-01-24T17:52:11.959Z,25.20
2024-01-24T17:54:39.145Z,25.20
2024-01-24T17:57:06.310Z,25.10
2024-01-24T17:59:33.494Z,25.10
2024-01-24T18:02:00.636Z,25.10
2024-01-24T18:04:29.083Z,25.10
2024-01-24T18:06:57.236Z,25.10
2024-01-24T18:09:24.613Z,25.10
2024-01-24T18:11:51.883Z,25.10
2024-01-24T18:14:19.049Z,25.10
2024-01-24T18:16:46.784Z,25.10
2024-01-24T18:19:14.119Z,25.10
2024-01-24T18:21:41.366Z,25.10
2024-01-24T18:24:09.606Z,25.10
2024-01-24T18:26:37.095Z,25.10
2024-01-24T18:29:04.370Z,25.10
2024-01-24T18:31:31.491Z,25.10
2024-01-24T18:33:58.706Z,25.10
2024-01-24T18:36:25.879Z,25.10
2024-01-24T18:38:53.086Z,25.10
2024-01-24T18:41:20.408Z,25.00
2024-01-24T18:43:49.941Z,25.00
2024-01-24T18:46:19.295Z,25.00
2024-01-24T18:48:46.883Z,25.00
2024-01-24T18:51:17.786Z,25.10
2024-01-24T18:53:45.523Z,25.00
2024-01-24T18:56:12.908Z,25.00
2024-01-24T18:58:40.234Z,25.00
2024-01-24T19:01:07.956Z,25.00
2024-01-24T19:03:35.408Z,25.00
2024-01-24T19:06:02.818Z,25.00
2024-01-24T19:08:34.548Z,25.00
2024-01-24T19:11:05.282Z,24.90
2024-01-24T19:13:34.938Z,25.00
2024-01-24T19:16:02.279Z,24.90
2024-01-24T19:18:30.468Z,25.00
2024-01-24T19:20:57.944Z,24.90
2024-01-24T19:23:25.036Z,25.00
2024-01-24T19:25:52.366Z,24.90
2024-01-24T19:28:20.322Z,24.90
2024-01-24T19:30:47.745Z,24.90
2024-01-24T19:33:15.061Z,24.90
2024-01-24T19:35:42.554Z,24.90
2024-01-24T19:38:11.252Z,24.90
2024-01-24T19:40:38.356Z,24.90
2024-01-24T19:43:05.862Z,24.90
2024-01-24T19:45:33.079Z,24.90
2024-01-24T19:48:00.552Z,24.90
2024-01-24T19:50:27.953Z,24.90
2024-01-24T19:52:56.735Z,24.90
2024-01-24T19:55:25.122Z,24.90
2024-01-24T19:57:52.381Z,24.90
2024-01-24T20:00:19.864Z,24.90
2024-01-24T20:02:47.699Z,24.90
2024-01-24T20:05:14.989Z,24.90
2024-01-24T20:07:44.869Z,24.90
2024-01-24T20:10:12.479Z,24.90
2024-01-24T20:12:39.779Z,24.90
2024-01-24T20:15:07.596Z,24.90
2024-01-24T20:17:34.780Z,24.90
2024-01-24T20:20:02.265Z,24.90
2024-01-24T20:22:29.600Z,24.90
2024-01-24T20:24:56.732Z,24.80
2024-01-24T20:27:24.796Z,24.80
2024-01-24T20:29:53.181Z,24.80
2024-01-24T20:32:21.229Z,24.80
2024-01-24T20:34:49.790Z,24.80
2024-01-24T20:37:19.074Z,24.80
2024-01-24T20:39:46.315Z,24.80
2024-01-24T20:42:14.375Z,24.80
2024-01-24T20:44:42.462Z,24.80
2024-01-24T20:47:10.380Z,24.80
2024-01-24T20:49:37.562Z,24.80
2024-01-24T20:52:05.164Z,24.80
2024-01-24T20:54:32.567Z,24.80
2024-01-24T20:56:59.839Z,24.80
2024-01-24T20:59:29.346Z,24.80
2024-01-24T21:01:59.798Z,24.80
2024-01-24T21:04:27.908Z,24.80
2024-01-24T21:06:55.331Z,24.80
2024-01-24T21:09:22.611Z,24.80
2024-01-24T21:11:49.718Z,24.80
2024-01-24T21:14:16.856Z,24.80
2024-01-24T21:16:44.570Z,24.80
2024-01-24T21:19:17.522Z,24.80
2024-01-24T21:21:45.222Z,24.80
2024-01-24T21:24:13.960Z,24.80
2024-01-24T21:26:41.415Z,24.80
2024-01-24T21:29:08.716Z,24.80
2024-01-24T21:31:35.781Z,24.80
2024-01-24T21:34:03.038Z,24.80
2024-01-24T21:36:30.241Z,24.80
2024-01-24T21:38:57.411Z,24.80
2024-01-24T21:41:24.591Z,24.80
2024-01-24T21:43:51.768Z,24.80
2024-01-24T21:46:18.996Z,24.80
2024-01-24T21:48:46.374Z,24.80
2024-01-24T21:51:14.571Z,24.80
2024-01-24T21:53:41.733Z,24.80
2024-01-24T21:56:08.964Z,24.80
2024-01-24T21:58:39.220Z,24.80
2024-01-24T22:01:07.457Z,24.70
2024-01-24T22:03:34.606Z,24.70
2024-01-24T22:06:01.748Z,24.70
2024-01-24T22:08:29.358Z,24.70
2024-01-24T22:10:56.460Z,24.80
2024-01-24T22:13:24.013Z,24.70
2024-01-24T22:15:51.677Z,24.70
2024-01-24T22:18:22.573Z,24.70
2024-01-24T22:20:52.389Z,24.70
2024-01-24T22:23:19.632Z,24.70
2024-01-24T22:25:46.767Z,24.70
2024-01-24T22:28:13.940Z,24.70
2024-01-24T22:30:41.801Z,24.60
2024-01-24T22:33:09.009Z,24.70
2024-01-24T22:35:38.704Z,24.70
2024-01-24T22:38:06.000Z,24.70
2024-01-24T22:40:33.861Z,24.70
2024-01-24T22:43:01.144Z,24.70
2024-01-24T22:45:28.290Z,24.60
2024-01-24T22:47:56.316Z,24.70
2024-01-24T22:50:23.664Z,24.60
2024-01-24T22:52:50.918Z,24.60
2024-01-24T22:55:18.230Z,24.60
2024-01-24T22:57:50.329Z,24.60
2024-01-24T23:00:19.033Z,24.60
2024-01-24T23:02:49.525Z,24.60
2024-01-24T23:05:17.481Z,24.60
2024-01-24T23:07:44.902Z,24.60
2024-01-24T23:10:12.239Z,24.60
2024-01-24T23:12:39.674Z,24.60
2024-01-24T23:15:07.477Z,24.60
2024-01-24T23:17:34.936Z,24.60
2024-01-24T23:20:04.430Z,24.60
2024-01-24T23:22:31.945Z,24.60
2024-01-24T23:24:59.204Z,24.60
2024-01-24T23:27:26.430Z,24.60
2024-01-24T23:29:53.489Z,24.60
2024-01-24T23:32:21.680Z,24.60
2024-01-24T23:34:48.970Z,24.60
2024-01-24T23:37:18.404Z,24.60
2024-01-24T23:39:45.645Z,24.60
2024-01-24T23:42:12.869Z,24.60
2024-01-24T23:44:42.777Z,24.60
2024-01-24T23:47:09.968Z,24.60
2024-01-24T23:49:37.532Z,24.60
2024-01-24T23:52:05.379Z,24.60
2024-01-24T23:54:32.731Z,24.60
2024-01-24T23:57:00.003Z,24.60
2024-01-24T23:59:27.228Z,24.50
